createdAt,value
2022-10-03T00:02:00.980Z,5.97
2022-10-03T00:44:31.744Z,12.57
2022-10-03T00:47:20.767Z,4.57
2022-10-03T00:50:21.372Z,4.63
2022-10-03T00:52:56.628Z,7.33
2022-10-03T00:55:39.188Z,7.60
2022-10-03T00:58:23.920Z,9.37
2022-10-03T01:00:52.458Z,10.60
2022-10-03T01:03:51.558Z,10.00
2022-10-03T01:06:27.053Z,8.17
2022-10-03T01:09:17.901Z,7.30
2022-10-03T01:11:55.828Z,6.87
2022-10-03T01:14:51.884Z,6.60
2022-10-03T01:17:32.923Z,7.43
2022-10-03T01:20:21.744Z,7.10
2022-10-03T01:23:06.324Z,7.30
2022-10-03T01:26:00.292Z,4.63
2022-10-03T01:29:18.236Z,5.93
2022-10-03T01:32:38.774Z,8.80
2022-10-03T01:35:42.665Z,9.98
2022-10-03T01:38:49.526Z,9.00
2022-10-03T01:42:03.152Z,8.60
2022-10-03T01:45:01.488Z,7.10
2022-10-03T01:47:51.689Z,4.87
2022-10-03T01:50:37.086Z,8.53
2022-10-03T01:53:30.876Z,11.60
2022-10-03T01:56:25.843Z,10.55
2022-10-03T01:58:58.433Z,5.33
2022-10-03T02:01:57.629Z,6.50
2022-10-03T02:04:53.708Z,5.90
2022-10-03T02:07:56.100Z,5.87
2022-10-03T02:10:45.427Z,5.88
2022-10-03T02:13:28.879Z,9.73
2022-10-03T02:16:21.890Z,6.07
2022-10-03T02:19:11.341Z,7.47
2022-10-03T02:21:50.433Z,6.73
2022-10-03T02:24:44.021Z,10.13
2022-10-03T02:27:53.619Z,6.33
2022-10-03T02:30:47.540Z,4.27
2022-10-03T02:33:41.558Z,6.37
2022-10-03T02:36:45.213Z,8.60
2022-10-03T02:39:50.444Z,7.60
2022-10-03T02:43:10.893Z,10.90
2022-10-03T02:46:09.552Z,7.68
2022-10-03T02:48:53.921Z,11.13
2022-10-03T02:51:59.579Z,4.80
2022-10-03T02:55:09.199Z,6.50
2022-10-03T02:57:48.940Z,4.97
2022-10-03T03:00:54.930Z,5.43
2022-10-03T03:04:18.412Z,7.50
2022-10-03T03:07:19.874Z,6.93
2022-10-03T03:10:33.327Z,12.32
2022-10-03T03:13:38.012Z,6.57
2022-10-03T03:16:55.810Z,8.37
2022-10-03T03:19:44.301Z,5.10
2022-10-03T03:22:41.731Z,7.07
2022-10-03T03:25:32.413Z,9.60
2022-10-03T03:28:29.760Z,10.00
2022-10-03T03:31:12.908Z,8.27
2022-10-03T03:34:02.235Z,5.53
2022-10-03T03:37:16.761Z,8.07
2022-10-03T03:40:32.397Z,7.03
2022-10-03T03:44:14.415Z,9.47
2022-10-03T03:47:03.784Z,12.95
2022-10-03T03:49:55.340Z,7.37
2022-10-03T03:52:48.291Z,9.07
2022-10-03T03:55:59.942Z,6.32
2022-10-03T03:59:03.907Z,9.27
2022-10-03T04:01:44.507Z,8.23
2022-10-03T04:04:23.295Z,4.73
2022-10-03T04:07:08.838Z,8.20
2022-10-03T04:09:54.037Z,4.77
2022-10-03T04:12:39.697Z,8.43
2022-10-03T04:15:22.677Z,7.03
2022-10-03T04:18:47.575Z,8.07
2022-10-03T04:21:51.634Z,8.63
2022-10-03T04:24:29.963Z,4.57
2022-10-03T04:27:39.466Z,5.40
2022-10-03T04:30:36.718Z,6.65
2022-10-03T04:33:46.612Z,7.47
2022-10-03T04:36:58.546Z,9.93
2022-10-03T04:39:45.166Z,5.15
2022-10-03T04:42:43.527Z,5.33
2022-10-03T04:45:42.309Z,8.03
2022-10-03T04:48:40.074Z,8.38
2022-10-03T04:51:16.090Z,6.73
2022-10-03T04:54:15.429Z,5.18
2022-10-03T04:57:25.126Z,8.35
2022-10-03T05:00:33.478Z,11.47
2022-10-03T05:03:57.675Z,7.00
2022-10-03T05:07:27.142Z,7.70
2022-10-03T05:10:17.232Z,16.00
2022-10-03T05:13:08.623Z,19.65
2022-10-03T05:16:05.012Z,24.10
2022-10-03T05:18:46.568Z,20.03
2022-10-03T05:21:48.973Z,19.73
2022-10-03T05:25:02.952Z,10.18
2022-10-03T05:28:01.832Z,8.48
2022-10-03T05:30:54.275Z,7.50
2022-10-03T05:33:45.972Z,4.73
2022-10-03T05:36:31.142Z,5.22
2022-10-03T05:39:30.190Z,6.93
2022-10-03T05:42:46.649Z,6.45
2022-10-03T05:45:46.928Z,5.03
2022-10-03T05:48:52.488Z,4.88
2022-10-03T05:51:37.235Z,4.55
2022-10-03T05:54:28.226Z,5.63
2022-10-03T05:57:07.324Z,8.55
2022-10-03T06:00:12.224Z,8.32
2022-10-03T06:03:27.339Z,6.38
2022-10-03T06:06:30.249Z,4.65
2022-10-03T06:09:31.342Z,4.45
2022-10-03T06:12:07.572Z,6.95
2022-10-03T06:15:05.359Z,11.75
2022-10-03T06:17:43.163Z,5.95
2022-10-03T06:20:31.027Z,10.27
2022-10-03T06:23:43.673Z,10.27
2022-10-03T06:27:26.991Z,5.75
2022-10-03T06:30:33.063Z,9.32
2022-10-03T06:33:30.006Z,12.60
2022-10-03T06:36:34.692Z,13.80
2022-10-03T06:39:54.278Z,12.27
2022-10-03T06:42:39.770Z,7.15
2022-10-03T06:45:49.018Z,20.38
2022-10-03T06:49:01.255Z,20.20
2022-10-03T06:52:01.177Z,20.40
2022-10-03T06:55:10.440Z,30.80
2022-10-03T06:58:27.416Z,27.80
2022-10-03T07:01:12.523Z,17.08
2022-10-03T07:04:24.261Z,20.13
2022-10-03T07:07:37.229Z,27.33
2022-10-03T07:10:31.777Z,22.70
2022-10-03T07:13:27.660Z,16.17
2022-10-03T07:16:27.049Z,9.73
2022-10-03T07:19:36.221Z,2.85
2022-10-03T07:22:34.084Z,4.47
2022-10-03T07:25:43.837Z,2.90
2022-10-03T07:28:56.827Z,1.98
2022-10-03T07:31:56.038Z,4.63
2022-10-03T07:34:34.541Z,7.75
2022-10-03T07:38:03.925Z,5.18
2022-10-03T07:41:05.405Z,10.88
2022-10-03T07:44:00.055Z,8.98
2022-10-03T07:46:44.519Z,6.47
2022-10-03T07:49:54.375Z,3.22
2022-10-03T07:52:54.240Z,4.57
2022-10-03T07:55:45.317Z,6.70
2022-10-03T07:58:37.499Z,16.38
2022-10-03T08:01:45.535Z,6.38
2022-10-03T08:04:50.817Z,3.35
2022-10-03T08:07:50.267Z,4.25
2022-10-03T08:10:54.443Z,9.30
2022-10-03T08:13:50.526Z,5.63
2022-10-03T08:16:51.475Z,4.07
2022-10-03T08:19:52.281Z,4.75
2022-10-03T08:22:44.238Z,5.63
2022-10-03T08:25:30.178Z,9.82
2022-10-03T08:28:47.823Z,4.32
2022-10-03T08:31:25.507Z,4.45
2022-10-03T08:34:00.814Z,10.60
2022-10-03T08:37:36.345Z,2.35
2022-10-03T08:40:40.122Z,10.75
2022-10-03T08:43:38.829Z,14.05
2022-10-03T08:46:51.214Z,4.25
2022-10-03T08:50:27.505Z,13.82
2022-10-03T08:53:35.446Z,9.57
2022-10-03T08:56:28.157Z,19.10
2022-10-03T08:59:39.200Z,7.53
2022-10-03T09:03:02.122Z,6.10
2022-10-03T09:07:05.020Z,6.72
2022-10-03T09:10:14.331Z,7.07
2022-10-03T09:13:02.467Z,4.15
2022-10-03T09:16:20.751Z,5.40
2022-10-03T09:19:36.138Z,2.60
2022-10-03T09:22:21.080Z,6.10
2022-10-03T09:25:19.880Z,8.45
2022-10-03T09:28:27.776Z,4.80
2022-10-03T09:31:13.728Z,6.15
2022-10-03T09:34:36.216Z,6.95
2022-10-03T09:37:36.963Z,3.58
2022-10-03T09:40:54.372Z,3.00
2022-10-03T09:43:42.337Z,2.97
2022-10-03T09:47:21.268Z,3.95
2022-10-03T09:50:44.161Z,4.25
2022-10-03T09:53:51.176Z,2.85
2022-10-03T09:56:47.714Z,6.20
2022-10-03T09:59:51.034Z,4.35
2022-10-03T10:02:49.119Z,3.45
2022-10-03T10:06:07.638Z,3.50
2022-10-03T10:08:56.807Z,4.03
2022-10-03T10:12:05.257Z,2.60
2022-10-03T10:15:15.533Z,2.15
2022-10-03T10:18:28.071Z,2.13
2022-10-03T10:21:22.547Z,6.25
2022-10-03T10:24:20.163Z,3.80
2022-10-03T10:27:20.594Z,3.15
2022-10-03T10:30:21.940Z,2.58
2022-10-03T10:33:08.729Z,3.55
2022-10-03T10:36:30.431Z,5.75
2022-10-03T10:39:54.109Z,4.82
2022-10-03T10:43:15.525Z,3.42
2022-10-03T10:46:16.476Z,1.48
2022-10-03T10:49:23.967Z,3.88
2022-10-03T10:52:36.025Z,1.58
2022-10-03T10:55:46.298Z,4.78
2022-10-03T10:58:50.295Z,5.15
2022-10-03T11:02:15.410Z,4.97
2022-10-03T11:05:40.391Z,11.63
2022-10-03T11:08:32.161Z,5.93
2022-10-03T11:11:13.578Z,5.65
2022-10-03T11:14:05.244Z,6.85
2022-10-03T11:17:29.081Z,12.20
2022-10-03T11:20:28.874Z,8.90
2022-10-03T11:24:11.428Z,3.35
2022-10-03T11:27:29.034Z,3.40
2022-10-03T11:30:27.380Z,8.82
2022-10-03T11:33:54.616Z,8.13
2022-10-03T11:36:47.308Z,9.82
2022-10-03T11:39:39.976Z,6.82
2022-10-03T11:42:50.852Z,9.68
2022-10-03T11:45:33.319Z,10.95
2022-10-03T11:48:18.853Z,15.70
2022-10-03T11:50:59.247Z,8.05
2022-10-03T11:53:45.948Z,5.45
2022-10-03T11:56:33.331Z,4.95
2022-10-03T11:59:55.414Z,13.85
2022-10-03T12:03:06.021Z,27.52
2022-10-03T12:06:22.161Z,30.63
2022-10-03T12:09:30.632Z,23.75
2022-10-03T12:12:09.720Z,16.65
2022-10-03T12:14:51.122Z,13.05
2022-10-03T12:17:37.003Z,17.23
2022-10-03T12:20:28.859Z,5.88
2022-10-03T12:23:45.915Z,18.52
2022-10-03T12:26:24.977Z,5.63
2022-10-03T12:28:56.191Z,2.42
2022-10-03T12:32:01.882Z,3.45
2022-10-03T12:35:04.724Z,3.28
2022-10-03T12:37:58.678Z,8.55
2022-10-03T12:40:38.009Z,7.95
2022-10-03T12:43:44.764Z,14.15
2022-10-03T12:46:30.656Z,16.92
2022-10-03T12:49:12.722Z,20.73
2022-10-03T12:51:53.105Z,23.98
2022-10-03T12:54:48.026Z,17.02
2022-10-03T12:57:53.255Z,13.05
2022-10-03T13:00:34.032Z,18.98
2022-10-03T13:03:21.513Z,19.73
2022-10-03T13:07:01.591Z,7.45
2022-10-03T13:09:56.333Z,7.28
2022-10-03T13:12:46.114Z,7.05
2022-10-03T13:15:41.248Z,9.98
2022-10-03T13:18:13.863Z,7.93
2022-10-03T13:20:50.245Z,6.68
2022-10-03T13:23:32.878Z,9.73
2022-10-03T13:26:28.097Z,6.65
2022-10-03T13:29:23.843Z,11.38
2022-10-03T13:32:16.438Z,9.00
2022-10-03T13:35:40.870Z,14.25
2022-10-03T13:38:47.785Z,5.82
2022-10-03T13:42:00.870Z,14.75
2022-10-03T13:44:54.574Z,21.50
2022-10-03T13:47:30.753Z,13.80
2022-10-03T13:50:13.898Z,13.70
2022-10-03T13:53:12.138Z,10.90
2022-10-03T13:55:53.932Z,7.05
2022-10-03T13:58:53.791Z,10.23
2022-10-03T14:01:57.400Z,4.43
2022-10-03T14:05:10.423Z,18.50
2022-10-03T14:08:08.886Z,16.15
2022-10-03T14:11:22.848Z,12.30
2022-10-03T14:14:01.976Z,9.63
2022-10-03T14:17:06.108Z,5.45
2022-10-03T14:19:52.138Z,3.22
2022-10-03T14:22:39.047Z,2.47
2022-10-03T14:25:12.678Z,7.57
2022-10-03T14:28:02.245Z,4.25
2022-10-03T14:31:05.435Z,4.10
2022-10-03T14:34:01.416Z,5.30
2022-10-03T14:36:58.476Z,2.00
2022-10-03T14:39:40.636Z,3.90
2022-10-03T14:42:43.238Z,5.53
2022-10-03T14:45:24.084Z,5.35
2022-10-03T14:47:57.705Z,11.32
2022-10-03T14:50:29.294Z,10.18
2022-10-03T14:53:29.928Z,6.07
2022-10-03T14:56:09.337Z,4.07
2022-10-03T14:58:46.190Z,5.40
2022-10-03T15:01:19.621Z,8.98
2022-10-03T15:04:07.831Z,12.75
2022-10-03T15:06:45.382Z,7.10
2022-10-03T15:09:23.060Z,7.85
2022-10-03T15:12:04.819Z,12.23
2022-10-03T15:14:38.267Z,10.75
2022-10-03T15:17:20.935Z,9.52
2022-10-03T15:19:55.138Z,16.75
2022-10-03T15:22:42.477Z,11.50
2022-10-03T15:25:15.047Z,6.38
2022-10-03T15:27:45.535Z,12.52
2022-10-03T15:30:33.642Z,3.47
2022-10-03T15:33:32.691Z,3.55
2022-10-03T15:36:39.979Z,5.15
2022-10-03T15:39:33.190Z,16.63
2022-10-03T15:42:08.925Z,9.55
2022-10-03T15:44:40.198Z,13.32
2022-10-03T15:47:14.003Z,5.00
2022-10-03T15:50:08.576Z,6.00
2022-10-03T15:52:49.239Z,4.55
2022-10-03T15:55:27.363Z,9.98
2022-10-03T15:58:13.977Z,9.85
2022-10-03T16:00:43.808Z,8.55
2022-10-03T16:03:42.699Z,6.20
2022-10-03T16:06:19.538Z,2.92
2022-10-03T16:09:16.119Z,8.45
2022-10-03T16:12:04.185Z,4.70
2022-10-03T16:15:02.221Z,5.85
2022-10-03T16:17:39.730Z,2.50
2022-10-03T16:20:45.701Z,3.90
2022-10-03T16:23:22.529Z,2.83
2022-10-03T16:25:54.008Z,6.05
2022-10-03T16:28:28.383Z,6.15
2022-10-03T16:31:06.663Z,1.15
2022-10-03T16:33:43.119Z,1.80
2022-10-03T16:36:17.193Z,5.60
2022-10-03T16:39:06.982Z,5.80
2022-10-03T16:41:44.147Z,2.63
2022-10-03T16:44:27.696Z,2.78
2022-10-03T16:47:00.935Z,6.22
2022-10-03T16:49:58.343Z,8.35
2022-10-03T16:52:37.604Z,8.27
2022-10-03T16:55:24.513Z,2.35
2022-10-03T16:58:18.417Z,7.97
2022-10-03T17:01:22.096Z,3.58
2022-10-03T17:04:15.991Z,5.07
2022-10-03T17:06:48.895Z,3.47
2022-10-03T17:09:42.237Z,5.30
2022-10-03T17:12:34.049Z,2.83
2022-10-03T17:15:21.320Z,3.30
2022-10-03T17:18:10.213Z,3.83
2022-10-03T17:20:48.185Z,3.67
2022-10-03T17:23:45.795Z,3.08
2022-10-03T17:26:29.502Z,3.17
2022-10-03T17:29:23.963Z,2.67
2022-10-03T17:32:28.603Z,8.15
2022-10-03T17:35:18.705Z,3.47
2022-10-03T17:38:47.888Z,8.73
2022-10-03T17:41:27.138Z,4.65
2022-10-03T17:44:17.221Z,7.57
2022-10-03T17:47:03.160Z,12.90
2022-10-03T17:49:46.112Z,5.85
2022-10-03T17:52:20.575Z,6.68
2022-10-03T17:55:05.094Z,7.18
2022-10-03T17:57:39.708Z,6.25
2022-10-03T18:00:33.803Z,12.13
2022-10-03T18:03:27.892Z,4.22
2022-10-03T18:06:02.603Z,6.63
2022-10-03T18:08:39.440Z,5.80
2022-10-03T18:11:10.179Z,7.45
2022-10-03T18:13:47.275Z,3.63
2022-10-03T18:16:36.445Z,3.10
2022-10-03T18:19:29.038Z,4.55
2022-10-03T18:22:03.571Z,4.13
2022-10-03T18:25:41.689Z,5.25
2022-10-03T18:28:32.104Z,10.17
2022-10-03T18:31:11.271Z,7.07
2022-10-03T18:34:03.488Z,8.27
2022-10-03T18:36:47.023Z,5.43
2022-10-03T18:39:28.056Z,7.32
2022-10-03T18:42:02.214Z,7.03
2022-10-03T18:44:33.239Z,2.67
2022-10-03T18:47:29.447Z,3.47
2022-10-03T18:50:28.374Z,7.50
2022-10-03T18:53:38.057Z,8.48
2022-10-03T18:56:12.998Z,4.37
2022-10-03T18:58:46.289Z,3.47
2022-10-03T19:01:41.974Z,3.93
2022-10-03T19:04:19.927Z,6.27
2022-10-03T19:06:53.632Z,3.13
2022-10-03T19:09:39.176Z,5.25
2022-10-03T19:12:20.072Z,7.30
2022-10-03T19:15:49.416Z,7.50
2022-10-03T19:18:39.848Z,3.73
2022-10-03T19:21:18.967Z,4.10
2022-10-03T19:24:14.906Z,7.38
2022-10-03T19:26:54.404Z,3.67
2022-10-03T19:29:28.195Z,5.90
2022-10-03T19:32:26.076Z,5.30
2022-10-03T19:34:59.108Z,12.37
2022-10-03T19:37:34.400Z,5.23
2022-10-03T19:40:02.095Z,4.77
2022-10-03T19:42:47.418Z,3.60
2022-10-03T19:45:16.476Z,6.60
2022-10-03T19:48:10.770Z,3.90
2022-10-03T19:50:38.505Z,4.93
2022-10-03T19:53:16.561Z,5.20
2022-10-03T19:55:45.761Z,4.87
2022-10-03T19:58:24.688Z,6.33
2022-10-03T20:00:56.182Z,4.87
2022-10-03T20:03:31.985Z,5.43
2022-10-03T20:06:13.616Z,4.70
2022-10-03T20:09:08.425Z,3.47
2022-10-03T20:11:50.123Z,7.83
2022-10-03T20:14:34.562Z,5.77
2022-10-03T20:17:15.739Z,7.53
2022-10-03T20:19:56.380Z,6.73
2022-10-03T20:22:28.634Z,8.43
2022-10-03T20:24:56.036Z,8.10
2022-10-03T20:27:56.443Z,5.67
2022-10-03T20:30:48.916Z,6.23
2022-10-03T20:33:33.492Z,6.80
2022-10-03T20:36:06.423Z,7.07
2022-10-03T20:38:36.099Z,6.50
2022-10-03T20:41:47.618Z,10.00
2022-10-03T20:45:17.784Z,10.05
2022-10-03T20:48:06.766Z,8.97
2022-10-03T20:50:47.592Z,10.07
2022-10-03T20:53:25.020Z,6.13
2022-10-03T20:56:12.377Z,6.63
2022-10-03T20:58:55.660Z,7.13
2022-10-03T21:01:31.560Z,6.18
2022-10-03T21:04:25.775Z,8.73
2022-10-03T21:07:00.430Z,5.47
2022-10-03T21:09:43.746Z,5.53
2022-10-03T21:12:28.360Z,8.05
2022-10-03T21:15:13.123Z,7.88
2022-10-03T21:17:45.423Z,8.05
2022-10-03T21:20:21.275Z,8.43
2022-10-03T21:22:52.528Z,7.27
2022-10-03T21:25:34.358Z,10.25
2022-10-03T21:28:04.403Z,9.02
2022-10-03T21:30:49.474Z,10.60
2022-10-03T21:33:30.705Z,6.68
2022-10-03T21:36:22.340Z,8.13
2022-10-03T21:38:51.146Z,7.97
2022-10-03T21:41:51.579Z,6.17
2022-10-03T21:44:53.256Z,11.15
2022-10-03T21:47:32.265Z,6.85
2022-10-03T21:50:07.807Z,5.72
2022-10-03T21:53:09.325Z,8.60
2022-10-03T21:56:12.406Z,9.88
2022-10-03T21:59:04.474Z,8.25
2022-10-03T22:01:44.224Z,9.38
2022-10-03T22:04:34.006Z,6.03
2022-10-03T22:07:18.635Z,9.87
2022-10-03T22:09:55.941Z,8.90
2022-10-03T22:12:26.591Z,6.32
2022-10-03T22:15:24.880Z,6.87
2022-10-03T22:18:05.265Z,7.32
2022-10-03T22:20:35.354Z,6.57
2022-10-03T22:23:19.490Z,7.30
2022-10-03T22:26:13.553Z,9.63
2022-10-03T22:29:05.695Z,8.30
2022-10-03T22:31:50.046Z,8.68
2022-10-03T22:34:51.856Z,10.73
2022-10-03T22:37:19.481Z,6.57
2022-10-03T22:39:48.501Z,9.57
2022-10-03T22:42:16.758Z,6.18
2022-10-03T22:44:50.448Z,8.13
2022-10-03T22:47:30.407Z,5.43
2022-10-03T22:50:03.082Z,5.63
2022-10-03T22:52:37.496Z,6.80
2022-10-03T22:55:10.245Z,8.30
2022-10-03T22:57:39.445Z,7.47
2022-10-03T23:00:13.410Z,8.27
2022-10-03T23:02:57.334Z,9.63
2022-10-03T23:06:05.745Z,8.80
2022-10-03T23:09:06.178Z,8.33
2022-10-03T23:11:36.703Z,7.90
2022-10-03T23:14:33.142Z,7.93
2022-10-03T23:17:46.625Z,6.38
2022-10-03T23:20:44.076Z,7.67
2022-10-03T23:23:22.773Z,7.83
2022-10-03T23:26:10.402Z,9.30
2022-10-03T23:29:15.651Z,5.60
2022-10-03T23:32:08.227Z,6.22
2022-10-03T23:34:37.599Z,7.10
2022-10-03T23:37:38.518Z,6.73
2022-10-03T23:40:23.643Z,5.83
2022-10-03T23:43:40.679Z,6.47
2022-10-03T23:46:22.290Z,7.47
2022-10-03T23:48:59.497Z,6.13
2022-10-03T23:51:36.529Z,5.93
2022-10-03T23:54:08.334Z,7.68
2022-10-03T23:56:42.281Z,5.40
2022-10-03T23:59:24.252Z,6.43
